sensor_id;sensor_type;location;lat;lon;timestamp;pressure;altitude;pressure_sealevel;temperature;humidity
31005;BME280;17676;52.254;4.490;2023-03-22T00:01:26;100781.91;;;10.89;100.00
31005;BME280;17676;52.254;4.490;2023-03-22T00:03:59;100773.13;;;11.00;100.00
31005;BME280;17676;52.254;4.490;2023-03-22T00:06:28;100758.78;;;10.93;100.00
31005;BME280;17676;52.254;4.490;2023-03-22T00:08:53;100765.66;;;10.89;100.00
31005;BME280;17676;52.254;4.490;2023-03-22T00:11:21;100759.00;;;10.85;100.00
31005;BME280;17676;52.254;4.490;2023-03-22T00:13:48;100756.97;;;10.81;100.00
31005;BME280;17676;52.254;4.490;2023-03-22T00:16:17;100755.69;;;10.83;100.00
31005;BME280;17676;52.254;4.490;2023-03-22T00:22:05;100751.09;;;10.77;100.00
31005;BME280;17676;52.254;4.490;2023-03-22T00:24:32;100754.47;;;10.79;100.00
31005;BME280;17676;52.254;4.490;2023-03-22T00:27:02;100739.47;;;10.77;100.00
31005;BME280;17676;52.254;4.490;2023-03-22T00:32:53;100744.91;;;10.70;100.00
31005;BME280;17676;52.254;4.490;2023-03-22T00:35:24;100745.94;;;10.69;100.00
31005;BME280;17676;52.254;4.490;2023-03-22T00:37:51;100739.09;;;10.60;100.00
31005;BME280;17676;52.254;4.490;2023-03-22T00:40:28;100744.50;;;10.60;100.00
31005;BME280;17676;52.254;4.490;2023-03-22T00:42:56;100740.53;;;10.63;100.00
31005;BME280;17676;52.254;4.490;2023-03-22T00:45:23;100741.78;;;10.60;100.00
31005;BME280;17676;52.254;4.490;2023-03-22T00:48:06;100741.19;;;10.58;100.00
31005;BME280;17676;52.254;4.490;2023-03-22T00:50:41;100738.25;;;10.60;100.00
31005;BME280;17676;52.254;4.490;2023-03-22T00:53:11;100728.69;;;10.51;100.00
31005;BME280;17676;52.254;4.490;2023-03-22T00:55:46;100733.66;;;10.60;100.00
31005;BME280;17676;52.254;4.490;2023-03-22T00:58:11;100721.41;;;10.58;100.00
31005;BME280;17676;52.254;4.490;2023-03-22T01:00:37;100722.84;;;10.54;100.00
31005;BME280;17676;52.254;4.490;2023-03-22T01:03:05;100720.34;;;10.52;100.00
31005;BME280;17676;52.254;4.490;2023-03-22T01:05:38;100706.63;;;10.47;100.00
31005;BME280;17676;52.254;4.490;2023-03-22T01:08:05;100707.47;;;10.54;100.00
31005;BME280;17676;52.254;4.490;2023-03-22T01:10:38;100705.56;;;10.55;100.00
31005;BME280;17676;52.254;4.490;2023-03-22T01:13:21;100696.63;;;10.54;100.00
31005;BME280;17676;52.254;4.490;2023-03-22T01:15:49;100701.19;;;10.60;100.00
31005;BME280;17676;52.254;4.490;2023-03-22T01:18:16;100689.97;;;10.57;100.00
31005;BME280;17676;52.254;4.490;2023-03-22T01:20:42;100691.66;;;10.51;100.00
31005;BME280;17676;52.254;4.490;2023-03-22T01:23:07;100689.16;;;10.50;100.00
31005;BME280;17676;52.254;4.490;2023-03-22T01:25:33;100684.97;;;10.54;100.00
31005;BME280;17676;52.254;4.490;2023-03-22T01:28:00;100678.72;;;10.53;100.00
31005;BME280;17676;52.254;4.490;2023-03-22T01:30:29;100675.00;;;10.54;100.00
31005;BME280;17676;52.254;4.490;2023-03-22T01:32:57;100665.81;;;10.55;100.00
31005;BME280;17676;52.254;4.490;2023-03-22T01:35:24;100665.81;;;10.55;100.00
31005;BME280;17676;52.254;4.490;2023-03-22T01:37:51;100661.84;;;10.58;100.00
31005;BME280;17676;52.254;4.490;2023-03-22T01:40:18;100653.75;;;10.58;100.00
31005;BME280;17676;52.254;4.490;2023-03-22T01:42:43;100643.09;;;10.63;100.00
31005;BME280;17676;52.254;4.490;2023-03-22T01:47:40;100633.53;;;10.60;100.00
31005;BME280;17676;52.254;4.490;2023-03-22T01:50:09;100637.91;;;10.68;100.00
31005;BME280;17676;52.254;4.490;2023-03-22T01:52:36;100631.44;;;10.69;100.00
31005;BME280;17676;52.254;4.490;2023-03-22T01:55:06;100628.06;;;10.73;100.00
31005;BME280;17676;52.254;4.490;2023-03-22T01:57:37;100629.13;;;10.72;100.00
31005;BME280;17676;52.254;4.490;2023-03-22T02:00:09;100617.94;;;10.62;100.00
31005;BME280;17676;52.254;4.490;2023-03-22T02:02:46;100624.59;;;10.66;100.00
31005;BME280;17676;52.254;4.490;2023-03-22T02:05:15;100617.94;;;10.62;100.00
31005;BME280;17676;52.254;4.490;2023-03-22T02:07:42;100610.66;;;10.56;100.00
31005;BME280;17676;52.254;4.490;2023-03-22T02:10:15;100609.63;;;10.51;100.00
31005;BME280;17676;52.254;4.490;2023-03-22T02:38:18;100573.16;;;10.66;100.00
31005;BME280;17676;52.254;4.490;2023-03-22T02:40:57;100574.63;;;10.62;100.00
31005;BME280;17676;52.254;4.490;2023-03-22T02:46:22;100571.09;;;10.62;100.00
31005;BME280;17676;52.254;4.490;2023-03-22T02:48:54;100567.13;;;10.64;100.00
31005;BME280;17676;52.254;4.490;2023-03-22T02:55:01;100550.81;;;10.77;100.00
31005;BME280;17676;52.254;4.490;2023-03-22T03:00:26;100567.03;;;10.77;100.00
31005;BME280;17676;52.254;4.490;2023-03-22T03:02:58;100553.50;;;10.77;100.00
31005;BME280;17676;52.254;4.490;2023-03-22T03:05:25;100555.78;;;10.80;100.00
31005;BME280;17676;52.254;4.490;2023-03-22T03:07:57;100560.34;;;10.86;100.00
31005;BME280;17676;52.254;4.490;2023-03-22T03:10:25;100546.81;;;10.86;100.00
31005;BME280;17676;52.254;4.490;2023-03-22T03:12:51;100542.44;;;10.85;100.00
31005;BME280;17676;52.254;4.490;2023-03-22T03:15:20;100554.28;;;10.91;100.00
31005;BME280;17676;52.254;4.490;2023-03-22T03:18:13;100549.06;;;10.89;100.00
31005;BME280;17676;52.254;4.490;2023-03-22T03:26:56;100539.03;;;10.96;100.00
31005;BME280;17676;52.254;4.490;2023-03-22T03:32:26;100526.47;;;11.08;100.00
31005;BME280;17676;52.254;4.490;2023-03-22T03:35:06;100526.88;;;11.05;100.00
31005;BME280;17676;52.254;4.490;2023-03-22T03:37:44;100525.50;;;10.96;100.00
31005;BME280;17676;52.254;4.490;2023-03-22T03:40:22;100529.84;;;10.97;100.00
31005;BME280;17676;52.254;4.490;2023-03-22T03:42:52;100525.28;;;10.98;100.00
31005;BME280;17676;52.254;4.490;2023-03-22T03:45:19;100522.34;;;10.99;100.00
31005;BME280;17676;52.254;4.490;2023-03-22T03:47:47;100531.53;;;10.98;100.00
31005;BME280;17676;52.254;4.490;2023-03-22T03:50:19;100527.59;;;10.94;100.00
31005;BME280;17676;52.254;4.490;2023-03-22T03:52:45;100525.06;;;10.99;100.00
31005;BME280;17676;52.254;4.490;2023-03-22T03:55:11;100515.72;;;10.95;100.00
31005;BME280;17676;52.254;4.490;2023-03-22T03:57:36;100529.47;;;10.94;100.00
31005;BME280;17676;52.254;4.490;2023-03-22T04:00:03;100519.91;;;10.91;100.00
31005;BME280;17676;52.254;4.490;2023-03-22T04:02:34;100516.56;;;10.89;100.00
31005;BME280;17676;52.254;4.490;2023-03-22T04:05:03;100519.53;;;10.88;100.00
31005;BME280;17676;52.254;4.490;2023-03-22T04:07:29;100520.97;;;10.90;100.00
31005;BME280;17676;52.254;4.490;2023-03-22T04:09:55;100517.03;;;10.86;100.00
31005;BME280;17676;52.254;4.490;2023-03-22T04:12:21;100515.81;;;10.82;100.00
31005;BME280;17676;52.254;4.490;2023-03-22T04:14:47;100517.25;;;10.85;100.00
31005;BME280;17676;52.254;4.490;2023-03-22T04:17:12;100512.47;;;10.80;100.00
31005;BME280;17676;52.254;4.490;2023-03-22T04:19:38;100518.53;;;10.82;100.00
31005;BME280;17676;52.254;4.490;2023-03-22T04:22:03;100520.78;;;10.85;100.00
31005;BME280;17676;52.254;4.490;2023-03-22T04:24:29;100518.69;;;10.87;100.00
31005;BME280;17676;52.254;4.490;2023-03-22T04:26:57;100520.34;;;10.88;100.00
31005;BME280;17676;52.254;4.490;2023-03-22T04:29:23;100504.16;;;10.82;100.00
31005;BME280;17676;52.254;4.490;2023-03-22T04:31:49;100494.59;;;10.79;100.00
31005;BME280;17676;52.254;4.490;2023-03-22T04:34:15;100504.56;;;10.79;100.00
31005;BME280;17676;52.254;4.490;2023-03-22T04:36:41;100500.16;;;10.84;100.00
31005;BME280;17676;52.254;4.490;2023-03-22T04:39:09;100501.59;;;10.87;100.00
31005;BME280;17676;52.254;4.490;2023-03-22T04:41:39;100492.22;;;10.89;100.00
31005;BME280;17676;52.254;4.490;2023-03-22T04:44:06;100498.25;;;10.91;100.00
31005;BME280;17676;52.254;4.490;2023-03-22T04:46:35;100488.47;;;10.90;100.00
31005;BME280;17676;52.254;4.490;2023-03-22T04:49:03;100495.53;;;10.91;100.00
31005;BME280;17676;52.254;4.490;2023-03-22T04:51:34;100484.56;;;10.86;100.00
31005;BME280;17676;52.254;4.490;2023-03-22T04:54:00;100481.59;;;10.94;100.00
31005;BME280;17676;52.254;4.490;2023-03-22T04:56:28;100478.25;;;10.92;100.00
31005;BME280;17676;52.254;4.490;2023-03-22T04:58:58;100472.25;;;10.90;100.00
31005;BME280;17676;52.254;4.490;2023-03-22T05:01:24;100484.44;;;10.99;100.00
31005;BME280;17676;52.254;4.490;2023-03-22T05:04:17;100473.41;;;11.01;100.00
31005;BME280;17676;52.254;4.490;2023-03-22T05:06:49;100468.16;;;11.06;100.00
31005;BME280;17676;52.254;4.490;2023-03-22T05:09:14;100472.56;;;11.00;100.00
31005;BME280;17676;52.254;4.490;2023-03-22T05:11:44;100474.91;;;10.97;100.00
31005;BME280;17676;52.254;4.490;2023-03-22T05:14:18;100468.63;;;10.96;100.00
31005;BME280;17676;52.254;4.490;2023-03-22T05:16:43;100468.63;;;10.96;100.00
31005;BME280;17676;52.254;4.490;2023-03-22T05:19:09;100467.16;;;11.00;100.00
31005;BME280;17676;52.254;4.490;2023-03-22T05:21:48;100464.44;;;11.00;100.00
31005;BME280;17676;52.254;4.490;2023-03-22T05:24:13;100464.28;;;10.95;100.00
31005;BME280;17676;52.254;4.490;2023-03-22T05:26:41;100449.97;;;10.88;100.00
31005;BME280;17676;52.254;4.490;2023-03-22T05:29:10;100457.03;;;10.89;100.00
31005;BME280;17676;52.254;4.490;2023-03-22T05:31:38;100453.28;;;10.90;100.00
31005;BME280;17676;52.254;4.490;2023-03-22T05:34:12;100446.19;;;10.89;100.00
31005;BME280;17676;52.254;4.490;2023-03-22T05:36:41;100442.84;;;10.94;100.00
31005;BME280;17676;52.254;4.490;2023-03-22T05:39:07;100439.75;;;10.90;100.00
31005;BME280;17676;52.254;4.490;2023-03-22T05:41:34;100438.06;;;10.89;100.00
31005;BME280;17676;52.254;4.490;2023-03-22T05:43:59;100427.44;;;10.94;100.00
31005;BME280;17676;52.254;4.490;2023-03-22T05:46:27;100438.69;;;10.91;100.00
31005;BME280;17676;52.254;4.490;2023-03-22T05:48:53;100435.31;;;10.96;100.00
31005;BME280;17676;52.254;4.490;2023-03-22T05:51:21;100424.03;;;10.99;100.00
31005;BME280;17676;52.254;4.490;2023-03-22T05:53:50;100429.25;;;11.00;100.00
31005;BME280;17676;52.254;4.490;2023-03-22T05:56:22;100427.19;;;10.96;100.00
31005;BME280;17676;52.254;4.490;2023-03-22T05:58:55;100430.72;;;10.96;100.00
31005;BME280;17676;52.254;4.490;2023-03-22T06:01:26;100428.66;;;10.98;100.00
31005;BME280;17676;52.254;4.490;2023-03-22T06:03:51;100430.25;;;11.06;100.00
31005;BME280;17676;52.254;4.490;2023-03-22T06:06:18;100427.31;;;11.07;100.00
31005;BME280;17676;52.254;4.490;2023-03-22T06:08:45;100428.75;;;11.10;100.00
31005;BME280;17676;52.254;4.490;2023-03-22T06:11:15;100420.41;;;11.11;100.00
31005;BME280;17676;52.254;4.490;2023-03-22T06:13:42;100414.53;;;11.14;100.00
31005;BME280;17676;52.254;4.490;2023-03-22T06:16:08;100417.25;;;11.14;100.00
31005;BME280;17676;52.254;4.490;2023-03-22T06:18:35;100422.38;;;11.22;100.00
31005;BME280;17676;52.254;4.490;2023-03-22T06:21:01;100417.63;;;11.18;100.00
31005;BME280;17676;52.254;4.490;2023-03-22T06:23:27;100412.72;;;11.08;100.00
31005;BME280;17676;52.254;4.490;2023-03-22T06:25:56;100420.56;;;11.16;100.00
31005;BME280;17676;52.254;4.490;2023-03-22T06:28:21;100424.91;;;11.17;100.00
31005;BME280;17676;52.254;4.490;2023-03-22T06:30:47;100402.38;;;10.99;100.00
31005;BME280;17676;52.254;4.490;2023-03-22T06:33:12;100414.28;;;10.98;100.00
31005;BME280;17676;52.254;4.490;2023-03-22T06:35:38;100402.44;;;10.92;100.00
31005;BME280;17676;52.254;4.490;2023-03-22T06:38:06;100404.88;;;11.00;100.00
31005;BME280;17676;52.254;4.490;2023-03-22T06:40:32;100414.00;;;11.06;100.00
31005;BME280;17676;52.254;4.490;2023-03-22T06:43:00;100407.72;;;11.05;100.00
31005;BME280;17676;52.254;4.490;2023-03-22T06:45:25;100404.31;;;11.16;100.00
31005;BME280;17676;52.254;4.490;2023-03-22T06:47:51;100420.44;;;11.29;100.00
31005;BME280;17676;52.254;4.490;2023-03-22T06:50:18;100407.16;;;11.21;100.00
31005;BME280;17676;52.254;4.490;2023-03-22T06:52:44;100405.16;;;11.17;100.00
31005;BME280;17676;52.254;4.490;2023-03-22T06:55:10;100406.28;;;11.27;100.00
31005;BME280;17676;52.254;4.490;2023-03-22T06:57:38;100385.50;;;11.21;100.00
31005;BME280;17676;52.254;4.490;2023-03-22T07:00:05;100390.91;;;11.21;100.00
31005;BME280;17676;52.254;4.490;2023-03-22T07:02:30;100386.41;;;11.15;100.00
31005;BME280;17676;52.254;4.490;2023-03-22T07:04:56;100381.75;;;11.22;100.00
31005;BME280;17676;52.254;4.490;2023-03-22T07:07:22;100378.81;;;11.24;100.00
31005;BME280;17676;52.254;4.490;2023-03-22T07:09:47;100390.47;;;11.24;100.00
31005;BME280;17676;52.254;4.490;2023-03-22T07:12:14;100412.59;;;11.21;100.00
31005;BME280;17676;52.254;4.490;2023-03-22T07:14:39;100383.84;;;11.20;100.00
31005;BME280;17676;52.254;4.490;2023-03-22T07:17:05;100403.25;;;11.17;100.00
31005;BME280;17676;52.254;4.490;2023-03-22T07:19:31;100398.00;;;11.22;100.00
31005;BME280;17676;52.254;4.490;2023-03-22T07:21:56;100397.25;;;11.15;100.00
31005;BME280;17676;52.254;4.490;2023-03-22T07:24:22;100381.75;;;11.22;100.00
31005;BME280;17676;52.254;4.490;2023-03-22T07:26:50;100386.13;;;11.23;100.00
31005;BME280;17676;52.254;4.490;2023-03-22T07:29:16;100381.75;;;11.22;100.00
31005;BME280;17676;52.254;4.490;2023-03-22T07:31:41;100392.44;;;11.35;100.00
31005;BME280;17676;52.254;4.490;2023-03-22T07:34:07;100390.19;;;11.32;100.00
31005;BME280;17676;52.254;4.490;2023-03-22T07:36:33;100397.81;;;11.42;100.00
31005;BME280;17676;52.254;4.490;2023-03-22T07:39:00;100391.53;;;11.41;100.00
31005;BME280;17676;52.254;4.490;2023-03-22T07:41:25;100394.09;;;11.36;100.00
31005;BME280;17676;52.254;4.490;2023-03-22T07:43:52;100398.16;;;11.45;100.00
31005;BME280;17676;52.254;4.490;2023-03-22T07:46:18;100401.16;;;11.37;100.00
31005;BME280;17676;52.254;4.490;2023-03-22T07:48:44;100412.47;;;11.34;100.00
31005;BME280;17676;52.254;4.490;2023-03-22T07:51:09;100407.78;;;11.41;100.00
31005;BME280;17676;52.254;4.490;2023-03-22T07:53:35;100410.97;;;11.38;100.00
31005;BME280;17676;52.254;4.490;2023-03-22T07:56:02;100422.03;;;11.37;100.00
31005;BME280;17676;52.254;4.490;2023-03-22T07:58:27;100400.88;;;11.27;100.00
31005;BME280;17676;52.254;4.490;2023-03-22T08:00:53;100403.09;;;11.12;100.00
31005;BME280;17676;52.254;4.490;2023-03-22T08:03:18;100423.53;;;11.08;100.00
31005;BME280;17676;52.254;4.490;2023-03-22T08:05:44;100414.22;;;11.04;100.00
31005;BME280;17676;52.254;4.490;2023-03-22T08:08:09;100410.63;;;11.10;100.00
31005;BME280;17676;52.254;4.490;2023-03-22T08:10:35;100425.19;;;11.09;100.00
31005;BME280;17676;52.254;4.490;2023-03-22T08:13:00;100415.31;;;10.97;100.00
31005;BME280;17676;52.254;4.490;2023-03-22T08:15:27;100414.31;;;10.91;100.00
31005;BME280;17676;52.254;4.490;2023-03-22T08:17:53;100424.94;;;10.93;100.00
31005;BME280;17676;52.254;4.490;2023-03-22T08:20:22;100427.50;;;10.81;100.00
31005;BME280;17676;52.254;4.490;2023-03-22T08:22:50;100417.78;;;10.74;100.00
31005;BME280;17676;52.254;4.490;2023-03-22T08:25:16;100431.13;;;10.75;100.00
31005;BME280;17676;52.254;4.490;2023-03-22T08:27:41;100435.72;;;10.68;100.00
31005;BME280;17676;52.254;4.490;2023-03-22T08:30:07;100430.31;;;10.68;100.00
31005;BME280;17676;52.254;4.490;2023-03-22T08:32:33;100424.31;;;10.66;100.00
31005;BME280;17676;52.254;4.490;2023-03-22T08:35:03;100429.72;;;10.66;100.00
31005;BME280;17676;52.254;4.490;2023-03-22T08:37:29;100424.56;;;10.58;100.00
31005;BME280;17676;52.254;4.490;2023-03-22T08:39:54;100424.38;;;10.60;100.00
31005;BME280;17676;52.254;4.490;2023-03-22T08:42:20;100431.06;;;10.51;100.00
31005;BME280;17676;52.254;4.490;2023-03-22T08:44:45;100436.09;;;10.47;100.00
31005;BME280;17676;52.254;4.490;2023-03-22T08:47:12;100432.75;;;10.52;100.00
31005;BME280;17676;52.254;4.490;2023-03-22T08:49:37;100423.16;;;10.49;100.00
31005;BME280;17676;52.254;4.490;2023-03-22T08:52:02;100424.78;;;10.57;100.00
31005;BME280;17676;52.254;4.490;2023-03-22T08:54:31;100433.34;;;10.54;100.00
31005;BME280;17676;52.254;4.490;2023-03-22T08:56:58;100453.53;;;10.51;100.00
31005;BME280;17676;52.254;4.490;2023-03-22T08:59:23;100447.09;;;10.52;100.00
31005;BME280;17676;52.254;4.490;2023-03-22T09:01:49;100446.03;;;10.53;100.00
31005;BME280;17676;52.254;4.490;2023-03-22T09:04:14;100446.38;;;10.63;100.00
31005;BME280;17676;52.254;4.490;2023-03-22T09:06:40;100451.38;;;10.66;100.00
31005;BME280;17676;52.254;4.490;2023-03-22T09:09:08;100452.22;;;10.60;100.00
31005;BME280;17676;52.254;4.490;2023-03-22T09:11:33;100451.00;;;10.56;100.00
31005;BME280;17676;52.254;4.490;2023-03-22T09:14:01;100452.22;;;10.60;100.00
31005;BME280;17676;52.254;4.490;2023-03-22T09:16:26;100458.88;;;10.64;100.00
31005;BME280;17676;52.254;4.490;2023-03-22T09:18:52;100464.22;;;10.71;100.00
31005;BME280;17676;52.254;4.490;2023-03-22T09:21:17;100462.41;;;10.65;100.00
31005;BME280;17676;52.254;4.490;2023-03-22T09:23:42;100464.22;;;10.71;100.00
31005;BME280;17676;52.254;4.490;2023-03-22T09:26:12;100462.16;;;10.73;100.00
31005;BME280;17676;52.254;4.490;2023-03-22T09:28:37;100465.66;;;10.73;100.00
31005;BME280;17676;52.254;4.490;2023-03-22T09:31:06;100464.44;;;10.69;100.00
31005;BME280;17676;52.254;4.490;2023-03-22T09:33:35;100471.31;;;10.72;100.00
31005;BME280;17676;52.254;4.490;2023-03-22T09:36:01;100459.03;;;10.76;100.00
31005;BME280;17676;52.254;4.490;2023-03-22T09:38:26;100459.22;;;10.74;100.00
31005;BME280;17676;52.254;4.490;2023-03-22T09:40:54;100464.19;;;10.77;100.00
31005;BME280;17676;52.254;4.490;2023-03-22T09:43:28;100468.13;;;10.81;100.00
31005;BME280;17676;52.254;4.490;2023-03-22T09:45:54;100470.00;;;10.81;100.00
31005;BME280;17676;52.254;4.490;2023-03-22T09:48:23;100477.47;;;10.85;100.00
31005;BME280;17676;52.254;4.490;2023-03-22T09:50:52;100476.22;;;10.81;100.00
31005;BME280;17676;52.254;4.490;2023-03-22T09:53:18;100473.53;;;10.81;100.00
31005;BME280;17676;52.254;4.490;2023-03-22T10:06:23;100481.06;;;10.79;100.00
31005;BME280;17676;52.254;4.490;2023-03-22T10:08:55;100492.41;;;10.94;100.00
31005;BME280;17676;52.254;4.490;2023-03-22T10:11:43;100484.94;;;10.90;100.00
31005;BME280;17676;52.254;4.490;2023-03-22T10:16:46;100449.09;;;10.94;100.00
31005;BME280;17676;52.254;4.490;2023-03-22T10:19:19;100461.72;;;11.00;100.00
31005;BME280;17676;52.254;4.490;2023-03-22T10:21:49;100447.81;;;10.97;100.00
31005;BME280;17676;52.254;4.490;2023-03-22T10:24:38;100437.34;;;11.00;100.00
31005;BME280;17676;52.254;4.490;2023-03-22T10:27:13;100440.22;;;11.05;100.00
31005;BME280;17676;52.254;4.490;2023-03-22T10:29:46;100438.94;;;11.08;100.00
31005;BME280;17676;52.254;4.490;2023-03-22T10:32:17;100457.69;;;11.09;100.00
31005;BME280;17676;52.254;4.490;2023-03-22T10:34:44;100448.06;;;11.13;100.00
31005;BME280;17676;52.254;4.490;2023-03-22T10:37:16;100447.22;;;11.19;100.00
31005;BME280;17676;52.254;4.490;2023-03-22T10:39:52;100448.13;;;11.31;100.00
31005;BME280;17676;52.254;4.490;2023-03-22T10:42:22;100430.03;;;11.25;100.00
31005;BME280;17676;52.254;4.490;2023-03-22T10:45:00;100444.38;;;11.32;100.00
31005;BME280;17676;52.254;4.490;2023-03-22T10:50:17;100425.59;;;11.55;100.00
31005;BME280;17676;52.254;4.490;2023-03-22T10:55:13;100430.53;;;11.58;100.00
31005;BME280;17676;52.254;4.490;2023-03-22T11:01:07;100454.31;;;11.63;100.00
31005;BME280;17676;52.254;4.490;2023-03-22T11:03:48;100436.75;;;11.65;100.00
31005;BME280;17676;52.254;4.490;2023-03-22T11:06:24;100446.53;;;11.66;100.00
31005;BME280;17676;52.254;4.490;2023-03-22T11:08:59;100450.16;;;11.60;100.00
31005;BME280;17676;52.254;4.490;2023-03-22T11:11:30;100467.63;;;11.64;100.00
31005;BME280;17676;52.254;4.490;2023-03-22T11:14:03;100454.31;;;11.63;100.00
31005;BME280;17676;52.254;4.490;2023-03-22T11:16:39;100472.47;;;11.80;100.00
31005;BME280;17676;52.254;4.490;2023-03-22T11:19:14;100463.13;;;11.76;100.00
31005;BME280;17676;52.254;4.490;2023-03-22T11:21:45;100475.16;;;11.62;100.00
31005;BME280;17676;52.254;4.490;2023-03-22T11:24:14;100466.44;;;11.60;100.00
31005;BME280;17676;52.254;4.490;2023-03-22T11:26:41;100453.03;;;11.65;100.00
31005;BME280;17676;52.254;4.490;2023-03-22T11:29:15;100455.16;;;11.63;100.00
31005;BME280;17676;52.254;4.490;2023-03-22T11:34:20;100464.97;;;11.58;100.00
31005;BME280;17676;52.254;4.490;2023-03-22T11:36:47;100470.16;;;11.59;100.00
31005;BME280;17676;52.254;4.490;2023-03-22T11:39:19;100458.88;;;11.62;100.00
31005;BME280;17676;52.254;4.490;2023-03-22T11:41:49;100462.38;;;11.69;100.00
31005;BME280;17676;52.254;4.490;2023-03-22T11:44:17;100457.09;;;11.74;100.00
31005;BME280;17676;52.254;4.490;2023-03-22T11:46:55;100445.81;;;11.77;100.00
31005;BME280;17676;52.254;4.490;2023-03-22T11:49:25;100458.47;;;11.83;100.00
31005;BME280;17676;52.254;4.490;2023-03-22T11:51:53;100455.44;;;11.73;100.00
31005;BME280;17676;52.254;4.490;2023-03-22T11:54:30;100454.56;;;11.79;100.00
31005;BME280;17676;52.254;4.490;2023-03-22T11:57:02;100450.78;;;11.80;100.00
31005;BME280;17676;52.254;4.490;2023-03-22T11:59:36;100464.47;;;11.85;100.00
31005;BME280;17676;52.254;4.490;2023-03-22T12:04:37;100451.53;;;11.87;100.00
31005;BME280;17676;52.254;4.490;2023-03-22T12:07:10;100440.16;;;11.97;100.00
31005;BME280;17676;52.254;4.490;2023-03-22T12:12:18;100440.00;;;11.92;100.00
31005;BME280;17676;52.254;4.490;2023-03-22T12:17:44;100430.56;;;11.94;100.00
31005;BME280;17676;52.254;4.490;2023-03-22T12:22:57;100433.38;;;12.06;100.00
31005;BME280;17676;52.254;4.490;2023-03-22T12:25:29;100413.63;;;12.17;100.00
31005;BME280;17676;52.254;4.490;2023-03-22T12:27:59;100414.44;;;12.17;100.00
31005;BME280;17676;52.254;4.490;2023-03-22T12:30:38;100420.78;;;12.11;100.00
31005;BME280;17676;52.254;4.490;2023-03-22T12:33:20;100422.44;;;12.12;100.00
31005;BME280;17676;52.254;4.490;2023-03-22T12:35:50;100421.97;;;12.15;100.00
31005;BME280;17676;52.254;4.490;2023-03-22T12:38:53;100417.84;;;12.13;100.00
31005;BME280;17676;52.254;4.490;2023-03-22T12:41:42;100420.31;;;12.14;100.00
31005;BME280;17676;52.254;4.490;2023-03-22T12:44:17;100422.56;;;12.17;100.00
31005;BME280;17676;52.254;4.490;2023-03-22T12:46:50;100435.50;;;12.33;100.00
31005;BME280;17676;52.254;4.490;2023-03-22T12:52:13;100436.44;;;12.27;100.00
31005;BME280;17676;52.254;4.490;2023-03-22T12:54:40;100418.22;;;12.16;100.00
31005;BME280;17676;52.254;4.490;2023-03-22T12:57:07;100430.63;;;12.24;100.00
31005;BME280;17676;52.254;4.490;2023-03-22T12:59:32;100425.63;;;12.21;100.00
31005;BME280;17676;52.254;4.490;2023-03-22T13:02:12;100439.28;;;12.32;100.00
31005;BME280;17676;52.254;4.490;2023-03-22T13:07:15;100424.28;;;12.30;100.00
31005;BME280;17676;52.254;4.490;2023-03-22T13:09:57;100422.53;;;12.35;100.00
31005;BME280;17676;52.254;4.490;2023-03-22T13:25:13;100397.16;;;12.82;100.00
31005;BME280;17676;52.254;4.490;2023-03-22T13:32:52;100400.41;;;13.02;100.00
31005;BME280;17676;52.254;4.490;2023-03-22T13:35:27;100404.63;;;12.87;100.00
31005;BME280;17676;52.254;4.490;2023-03-22T13:38:05;100396.25;;;12.88;100.00
31005;BME280;17676;52.254;4.490;2023-03-22T13:40:42;100393.19;;;12.96;100.00
31005;BME280;17676;52.254;4.490;2023-03-22T14:02:15;100392.63;;;12.65;100.00
31005;BME280;17676;52.254;4.490;2023-03-22T14:04:56;100382.03;;;12.63;100.00
31005;BME280;17676;52.254;4.490;2023-03-22T14:07:51;100385.22;;;12.60;100.00
31005;BME280;17676;52.254;4.490;2023-03-22T14:10:26;100372.38;;;12.67;100.00
31005;BME280;17676;52.254;4.490;2023-03-22T14:13:10;100377.78;;;12.67;100.00
31005;BME280;17676;52.254;4.490;2023-03-22T14:15:44;100374.38;;;12.72;100.00
31005;BME280;17676;52.254;4.490;2023-03-22T14:18:23;100378.16;;;12.82;100.00
31005;BME280;17676;52.254;4.490;2023-03-22T14:23:47;100369.53;;;12.85;100.00
31005;BME280;17676;52.254;4.490;2023-03-22T14:26:39;100373.78;;;12.81;100.00
31005;BME280;17676;52.254;4.490;2023-03-22T14:29:11;100377.34;;;12.82;100.00
31005;BME280;17676;52.254;4.490;2023-03-22T14:31:38;100371.19;;;12.86;100.00
31005;BME280;17676;52.254;4.490;2023-03-22T14:34:07;100369.53;;;12.85;100.00
31005;BME280;17676;52.254;4.490;2023-03-22T14:36:36;100363.63;;;12.77;100.00
31005;BME280;17676;52.254;4.490;2023-03-22T14:39:11;100353.72;;;12.82;100.00
31005;BME280;17676;52.254;4.490;2023-03-22T14:42:13;100360.72;;;12.90;100.00
31005;BME280;17676;52.254;4.490;2023-03-22T14:44:42;100362.81;;;12.76;100.00
31005;BME280;17676;52.254;4.490;2023-03-22T14:47:29;100365.41;;;12.71;100.00
31005;BME280;17676;52.254;4.490;2023-03-22T14:50:03;100368.47;;;12.86;100.00
31005;BME280;17676;52.254;4.490;2023-03-22T14:52:31;100370.72;;;12.89;100.00
31005;BME280;17676;52.254;4.490;2023-03-22T14:55:00;100368.13;;;12.94;100.00
31005;BME280;17676;52.254;4.490;2023-03-22T14:57:31;100370.38;;;12.86;100.00
31005;BME280;17676;52.254;4.490;2023-03-22T14:59:58;100363.03;;;12.86;100.00
31005;BME280;17676;52.254;4.490;2023-03-22T15:02:36;100370.00;;;12.82;100.00
31005;BME280;17676;52.254;4.490;2023-03-22T15:05:06;100370.38;;;12.86;100.00
31005;BME280;17676;52.254;4.490;2023-03-22T15:07:46;100372.25;;;12.85;100.00